sensor_id;sensor_type;location;lat;lon;timestamp;temperature;humidity
42031;DHT22;27709;52.036;5.906;2022-10-31T00:01:59;12.80;99.90
42031;DHT22;27709;52.036;5.906;2022-10-31T00:04:25;12.80;99.90
42031;DHT22;27709;52.036;5.906;2022-10-31T00:06:50;12.70;99.90
42031;DHT22;27709;52.036;5.906;2022-10-31T00:09:16;12.70;99.90
42031;DHT22;27709;52.036;5.906;2022-10-31T00:11:41;12.70;99.90
42031;DHT22;27709;52.036;5.906;2022-10-31T00:14:07;12.70;99.90
42031;DHT22;27709;52.036;5.906;2022-10-31T00:16:32;12.70;99.90
42031;DHT22;27709;52.036;5.906;2022-10-31T00:19:00;12.60;99.90
42031;DHT22;27709;52.036;5.906;2022-10-31T00:21:27;12.60;99.90
42031;DHT22;27709;52.036;5.906;2022-10-31T00:23:52;12.50;99.90
42031;DHT22;27709;52.036;5.906;2022-10-31T00:26:18;12.50;99.90
42031;DHT22;27709;52.036;5.906;2022-10-31T00:28:44;12.50;99.90
42031;DHT22;27709;52.036;5.906;2022-10-31T00:31:11;12.50;99.90
42031;DHT22;27709;52.036;5.906;2022-10-31T00:33:38;12.50;99.90
42031;DHT22;27709;52.036;5.906;2022-10-31T00:36:05;12.50;99.90
42031;DHT22;27709;52.036;5.906;2022-10-31T00:38:31;12.50;99.90
42031;DHT22;27709;52.036;5.906;2022-10-31T00:40:57;12.50;99.90
42031;DHT22;27709;52.036;5.906;2022-10-31T00:43:22;12.50;99.90
42031;DHT22;27709;52.036;5.906;2022-10-31T00:45:48;12.60;99.90
42031;DHT22;27709;52.036;5.906;2022-10-31T00:48:14;12.60;99.90
42031;DHT22;27709;52.036;5.906;2022-10-31T00:50:39;12.50;99.90
42031;DHT22;27709;52.036;5.906;2022-10-31T00:53:05;12.50;99.90
42031;DHT22;27709;52.036;5.906;2022-10-31T00:55:31;12.50;99.90
42031;DHT22;27709;52.036;5.906;2022-10-31T00:57:57;12.50;99.90
42031;DHT22;27709;52.036;5.906;2022-10-31T01:00:23;12.50;99.90
42031;DHT22;27709;52.036;5.906;2022-10-31T01:02:48;12.50;99.90
42031;DHT22;27709;52.036;5.906;2022-10-31T01:05:14;12.60;99.90
42031;DHT22;27709;52.036;5.906;2022-10-31T01:07:40;12.60;99.90
42031;DHT22;27709;52.036;5.906;2022-10-31T01:10:07;12.60;99.90
42031;DHT22;27709;52.036;5.906;2022-10-31T01:12:51;12.60;99.90
42031;DHT22;27709;52.036;5.906;2022-10-31T01:15:19;12.60;99.90
42031;DHT22;27709;52.036;5.906;2022-10-31T01:17:45;12.60;99.90
42031;DHT22;27709;52.036;5.906;2022-10-31T01:20:12;12.50;99.90
42031;DHT22;27709;52.036;5.906;2022-10-31T01:22:38;12.50;99.90
42031;DHT22;27709;52.036;5.906;2022-10-31T01:25:04;12.50;99.90
42031;DHT22;27709;52.036;5.906;2022-10-31T01:27:30;12.50;99.90
42031;DHT22;27709;52.036;5.906;2022-10-31T01:29:56;12.50;99.90
42031;DHT22;27709;52.036;5.906;2022-10-31T01:32:21;12.50;99.90
42031;DHT22;27709;52.036;5.906;2022-10-31T01:34:47;12.50;99.90
42031;DHT22;27709;52.036;5.906;2022-10-31T01:37:12;12.50;99.90
42031;DHT22;27709;52.036;5.906;2022-10-31T01:39:38;12.40;99.90
42031;DHT22;27709;52.036;5.906;2022-10-31T01:42:04;12.40;99.90
42031;DHT22;27709;52.036;5.906;2022-10-31T01:46:58;12.50;99.90
42031;DHT22;27709;52.036;5.906;2022-10-31T01:52:04;12.40;99.90
42031;DHT22;27709;52.036;5.906;2022-10-31T01:54:36;12.30;99.90
42031;DHT22;27709;52.036;5.906;2022-10-31T01:57:04;12.30;99.90
42031;DHT22;27709;52.036;5.906;2022-10-31T01:59:34;12.20;99.90
42031;DHT22;27709;52.036;5.906;2022-10-31T02:02:02;12.10;99.90
42031;DHT22;27709;52.036;5.906;2022-10-31T02:04:29;12.10;99.90
42031;DHT22;27709;52.036;5.906;2022-10-31T02:07:02;12.10;99.90
42031;DHT22;27709;52.036;5.906;2022-10-31T02:09:30;12.00;99.90
42031;DHT22;27709;52.036;5.906;2022-10-31T02:11:58;12.00;99.90
42031;DHT22;27709;52.036;5.906;2022-10-31T02:14:26;12.00;99.90
42031;DHT22;27709;52.036;5.906;2022-10-31T02:16:53;12.00;99.90
42031;DHT22;27709;52.036;5.906;2022-10-31T02:19:29;12.00;99.90
42031;DHT22;27709;52.036;5.906;2022-10-31T02:22:18;11.90;99.90
42031;DHT22;27709;52.036;5.906;2022-10-31T02:30:20;11.70;99.90
42031;DHT22;27709;52.036;5.906;2022-10-31T02:35:35;11.70;99.90
42031;DHT22;27709;52.036;5.906;2022-10-31T02:38:42;11.60;99.90
42031;DHT22;27709;52.036;5.906;2022-10-31T02:45:11;11.60;99.90
42031;DHT22;27709;52.036;5.906;2022-10-31T02:47:06;11.50;99.90
42031;DHT22;27709;52.036;5.906;2022-10-31T02:49:37;11.40;99.90
42031;DHT22;27709;52.036;5.906;2022-10-31T02:52:17;11.40;99.90
42031;DHT22;27709;52.036;5.906;2022-10-31T02:54:44;11.40;99.90
42031;DHT22;27709;52.036;5.906;2022-10-31T02:57:10;11.30;99.90
42031;DHT22;27709;52.036;5.906;2022-10-31T02:59:45;11.20;99.90
42031;DHT22;27709;52.036;5.906;2022-10-31T03:02:22;11.20;99.90
42031;DHT22;27709;52.036;5.906;2022-10-31T03:07:40;11.10;99.90
42031;DHT22;27709;52.036;5.906;2022-10-31T03:16:16;11.00;99.90
42031;DHT22;27709;52.036;5.906;2022-10-31T03:18:51;11.10;99.90
42031;DHT22;27709;52.036;5.906;2022-10-31T03:23:49;11.00;99.90
42031;DHT22;27709;52.036;5.906;2022-10-31T03:26:16;11.00;99.90
42031;DHT22;27709;52.036;5.906;2022-10-31T03:28:48;10.90;99.90
42031;DHT22;27709;52.036;5.906;2022-10-31T03:31:18;10.90;99.90
42031;DHT22;27709;52.036;5.906;2022-10-31T03:33:46;10.80;99.90
42031;DHT22;27709;52.036;5.906;2022-10-31T03:36:14;10.80;99.90
42031;DHT22;27709;52.036;5.906;2022-10-31T03:38:41;10.70;99.90
42031;DHT22;27709;52.036;5.906;2022-10-31T03:41:11;10.60;99.90
42031;DHT22;27709;52.036;5.906;2022-10-31T03:43:42;10.60;99.90
42031;DHT22;27709;52.036;5.906;2022-10-31T03:46:09;10.60;99.90
42031;DHT22;27709;52.036;5.906;2022-10-31T03:48:35;10.60;99.90
42031;DHT22;27709;52.036;5.906;2022-10-31T03:51:13;10.60;99.90
42031;DHT22;27709;52.036;5.906;2022-10-31T03:54:03;10.60;99.90
42031;DHT22;27709;52.036;5.906;2022-10-31T03:56:35;10.60;99.90
42031;DHT22;27709;52.036;5.906;2022-10-31T03:59:07;10.60;99.90
42031;DHT22;27709;52.036;5.906;2022-10-31T04:01:39;10.50;99.90
42031;DHT22;27709;52.036;5.906;2022-10-31T04:04:06;10.40;99.90
42031;DHT22;27709;52.036;5.906;2022-10-31T04:06:34;10.40;99.90
42031;DHT22;27709;52.036;5.906;2022-10-31T04:09:03;10.30;99.90
42031;DHT22;27709;52.036;5.906;2022-10-31T04:11:34;10.30;99.90
42031;DHT22;27709;52.036;5.906;2022-10-31T04:14:02;10.30;99.90
42031;DHT22;27709;52.036;5.906;2022-10-31T04:16:29;10.20;99.90
42031;DHT22;27709;52.036;5.906;2022-10-31T04:18:54;10.20;99.90
42031;DHT22;27709;52.036;5.906;2022-10-31T04:21:27;10.10;99.90
42031;DHT22;27709;52.036;5.906;2022-10-31T04:23:53;10.10;99.90
42031;DHT22;27709;52.036;5.906;2022-10-31T04:26:19;10.10;99.90
42031;DHT22;27709;52.036;5.906;2022-10-31T04:28:44;10.10;99.90
42031;DHT22;27709;52.036;5.906;2022-10-31T04:31:11;10.20;99.90
42031;DHT22;27709;52.036;5.906;2022-10-31T04:33:37;10.10;99.90
42031;DHT22;27709;52.036;5.906;2022-10-31T04:36:03;10.10;99.90
42031;DHT22;27709;52.036;5.906;2022-10-31T04:38:29;10.00;99.90
42031;DHT22;27709;52.036;5.906;2022-10-31T04:40:55;10.00;99.90
42031;DHT22;27709;52.036;5.906;2022-10-31T04:43:20;9.90;99.90
42031;DHT22;27709;52.036;5.906;2022-10-31T04:45:46;9.90;99.90
42031;DHT22;27709;52.036;5.906;2022-10-31T04:48:11;9.90;99.90
42031;DHT22;27709;52.036;5.906;2022-10-31T04:50:37;9.90;99.90
42031;DHT22;27709;52.036;5.906;2022-10-31T04:53:03;9.90;99.90
42031;DHT22;27709;52.036;5.906;2022-10-31T04:55:28;9.90;99.90
42031;DHT22;27709;52.036;5.906;2022-10-31T04:57:53;9.90;99.90
42031;DHT22;27709;52.036;5.906;2022-10-31T05:00:21;9.80;99.90
42031;DHT22;27709;52.036;5.906;2022-10-31T05:02:52;9.80;99.90
42031;DHT22;27709;52.036;5.906;2022-10-31T05:05:20;9.90;99.90
42031;DHT22;27709;52.036;5.906;2022-10-31T05:07:47;9.90;99.90
42031;DHT22;27709;52.036;5.906;2022-10-31T05:10:16;9.90;99.90
42031;DHT22;27709;52.036;5.906;2022-10-31T05:12:50;9.90;99.90
42031;DHT22;27709;52.036;5.906;2022-10-31T05:15:17;9.90;99.90
42031;DHT22;27709;52.036;5.906;2022-10-31T05:17:43;10.00;99.90
42031;DHT22;27709;52.036;5.906;2022-10-31T05:20:10;10.00;99.90
42031;DHT22;27709;52.036;5.906;2022-10-31T05:22:36;10.00;99.90
42031;DHT22;27709;52.036;5.906;2022-10-31T05:25:01;9.90;99.90
42031;DHT22;27709;52.036;5.906;2022-10-31T05:27:27;9.90;99.90
42031;DHT22;27709;52.036;5.906;2022-10-31T05:29:52;9.90;99.90
42031;DHT22;27709;52.036;5.906;2022-10-31T05:32:18;9.90;99.90
42031;DHT22;27709;52.036;5.906;2022-10-31T05:34:43;9.90;99.90
42031;DHT22;27709;52.036;5.906;2022-10-31T05:37:09;9.90;99.90
42031;DHT22;27709;52.036;5.906;2022-10-31T05:39:34;10.00;99.90
42031;DHT22;27709;52.036;5.906;2022-10-31T05:42:00;10.00;99.90
42031;DHT22;27709;52.036;5.906;2022-10-31T05:44:25;10.00;99.90
42031;DHT22;27709;52.036;5.906;2022-10-31T05:46:51;10.10;99.90
42031;DHT22;27709;52.036;5.906;2022-10-31T05:49:16;10.00;99.90
42031;DHT22;27709;52.036;5.906;2022-10-31T05:51:42;10.10;99.90
42031;DHT22;27709;52.036;5.906;2022-10-31T05:54:08;10.20;99.90
42031;DHT22;27709;52.036;5.906;2022-10-31T05:56:34;10.20;99.90
42031;DHT22;27709;52.036;5.906;2022-10-31T05:58:59;10.30;99.90
42031;DHT22;27709;52.036;5.906;2022-10-31T06:01:25;10.30;99.90
42031;DHT22;27709;52.036;5.906;2022-10-31T06:03:50;10.30;99.90
42031;DHT22;27709;52.036;5.906;2022-10-31T06:06:16;10.30;99.90
42031;DHT22;27709;52.036;5.906;2022-10-31T06:08:41;10.40;99.90
42031;DHT22;27709;52.036;5.906;2022-10-31T06:11:07;10.40;99.90
42031;DHT22;27709;52.036;5.906;2022-10-31T06:13:32;10.50;99.90
42031;DHT22;27709;52.036;5.906;2022-10-31T06:15:58;10.70;99.90
42031;DHT22;27709;52.036;5.906;2022-10-31T06:18:23;10.70;99.90
42031;DHT22;27709;52.036;5.906;2022-10-31T06:20:49;10.80;99.90
42031;DHT22;27709;52.036;5.906;2022-10-31T06:23:15;10.90;99.90
42031;DHT22;27709;52.036;5.906;2022-10-31T06:25:40;10.90;99.90
42031;DHT22;27709;52.036;5.906;2022-10-31T06:28:06;11.00;99.90
42031;DHT22;27709;52.036;5.906;2022-10-31T06:30:31;11.00;99.90
42031;DHT22;27709;52.036;5.906;2022-10-31T06:33:04;11.10;99.90
42031;DHT22;27709;52.036;5.906;2022-10-31T06:35:30;11.10;99.90
42031;DHT22;27709;52.036;5.906;2022-10-31T06:37:56;11.10;99.90
42031;DHT22;27709;52.036;5.906;2022-10-31T06:40:22;11.10;99.90
42031;DHT22;27709;52.036;5.906;2022-10-31T06:42:55;11.10;99.90
42031;DHT22;27709;52.036;5.906;2022-10-31T06:45:20;11.20;99.90
42031;DHT22;27709;52.036;5.906;2022-10-31T06:47:53;11.10;99.90
42031;DHT22;27709;52.036;5.906;2022-10-31T06:50:20;11.20;99.90
42031;DHT22;27709;52.036;5.906;2022-10-31T06:52:57;11.20;99.90
42031;DHT22;27709;52.036;5.906;2022-10-31T06:55:24;11.30;99.90
42031;DHT22;27709;52.036;5.906;2022-10-31T06:57:58;11.30;99.90
42031;DHT22;27709;52.036;5.906;2022-10-31T07:00:25;11.20;99.90
42031;DHT22;27709;52.036;5.906;2022-10-31T07:03:01;11.10;99.90
42031;DHT22;27709;52.036;5.906;2022-10-31T07:05:28;11.10;99.90
42031;DHT22;27709;52.036;5.906;2022-10-31T07:07:55;11.10;99.90
42031;DHT22;27709;52.036;5.906;2022-10-31T07:10:22;11.20;99.90
42031;DHT22;27709;52.036;5.906;2022-10-31T07:12:48;11.20;99.90
42031;DHT22;27709;52.036;5.906;2022-10-31T07:15:14;11.20;99.90
42031;DHT22;27709;52.036;5.906;2022-10-31T07:17:39;11.20;99.90
42031;DHT22;27709;52.036;5.906;2022-10-31T07:20:05;11.20;99.90
42031;DHT22;27709;52.036;5.906;2022-10-31T07:22:35;11.30;99.90
42031;DHT22;27709;52.036;5.906;2022-10-31T07:25:01;11.30;99.90
42031;DHT22;27709;52.036;5.906;2022-10-31T07:27:28;11.30;99.90
42031;DHT22;27709;52.036;5.906;2022-10-31T07:29:53;11.40;99.90
42031;DHT22;27709;52.036;5.906;2022-10-31T07:32:20;11.50;99.90
42031;DHT22;27709;52.036;5.906;2022-10-31T07:34:46;11.60;99.90
42031;DHT22;27709;52.036;5.906;2022-10-31T07:37:11;11.60;99.90
42031;DHT22;27709;52.036;5.906;2022-10-31T07:39:37;11.70;99.90
42031;DHT22;27709;52.036;5.906;2022-10-31T07:42:02;11.80;99.90
42031;DHT22;27709;52.036;5.906;2022-10-31T07:44:28;11.80;99.90
42031;DHT22;27709;52.036;5.906;2022-10-31T07:46:54;11.90;99.90
42031;DHT22;27709;52.036;5.906;2022-10-31T07:49:19;12.10;99.90
42031;DHT22;27709;52.036;5.906;2022-10-31T07:51:45;12.10;99.90
42031;DHT22;27709;52.036;5.906;2022-10-31T07:54:10;12.30;99.90
42031;DHT22;27709;52.036;5.906;2022-10-31T07:56:36;12.40;99.90
42031;DHT22;27709;52.036;5.906;2022-10-31T07:59:02;12.60;99.90
42031;DHT22;27709;52.036;5.906;2022-10-31T08:01:27;12.90;99.90
42031;DHT22;27709;52.036;5.906;2022-10-31T08:03:53;13.30;99.90
42031;DHT22;27709;52.036;5.906;2022-10-31T08:06:18;13.70;99.90
42031;DHT22;27709;52.036;5.906;2022-10-31T08:08:44;14.10;99.90
42031;DHT22;27709;52.036;5.906;2022-10-31T08:11:09;14.40;99.90
42031;DHT22;27709;52.036;5.906;2022-10-31T08:13:35;14.70;99.90
42031;DHT22;27709;52.036;5.906;2022-10-31T08:16:01;14.90;99.90
42031;DHT22;27709;52.036;5.906;2022-10-31T08:18:29;15.00;99.90
42031;DHT22;27709;52.036;5.906;2022-10-31T08:20:55;15.00;99.90
42031;DHT22;27709;52.036;5.906;2022-10-31T08:23:21;15.10;99.90
42031;DHT22;27709;52.036;5.906;2022-10-31T08:25:47;15.20;99.90
42031;DHT22;27709;52.036;5.906;2022-10-31T08:28:13;15.30;99.90
42031;DHT22;27709;52.036;5.906;2022-10-31T08:30:40;15.40;99.90
42031;DHT22;27709;52.036;5.906;2022-10-31T08:35:34;15.50;99.90
42031;DHT22;27709;52.036;5.906;2022-10-31T08:38:00;15.50;99.90
42031;DHT22;27709;52.036;5.906;2022-10-31T08:40:29;15.60;99.90
42031;DHT22;27709;52.036;5.906;2022-10-31T08:43:01;15.60;99.90
42031;DHT22;27709;52.036;5.906;2022-10-31T08:45:28;15.60;99.90
42031;DHT22;27709;52.036;5.906;2022-10-31T08:48:02;15.60;99.90
42031;DHT22;27709;52.036;5.906;2022-10-31T08:50:28;15.60;99.90
42031;DHT22;27709;52.036;5.906;2022-10-31T08:53:06;15.70;99.90
42031;DHT22;27709;52.036;5.906;2022-10-31T08:55:35;15.70;99.90
42031;DHT22;27709;52.036;5.906;2022-10-31T08:58:03;15.70;99.90
42031;DHT22;27709;52.036;5.906;2022-10-31T09:00:31;15.70;99.90
42031;DHT22;27709;52.036;5.906;2022-10-31T09:02:57;15.70;99.90
42031;DHT22;27709;52.036;5.906;2022-10-31T09:08:01;15.90;99.90
42031;DHT22;27709;52.036;5.906;2022-10-31T09:10:31;16.00;99.90
42031;DHT22;27709;52.036;5.906;2022-10-31T09:13:04;16.10;99.90
42031;DHT22;27709;52.036;5.906;2022-10-31T09:28:53;16.60;99.90
42031;DHT22;27709;52.036;5.906;2022-10-31T09:31:35;16.60;99.90
42031;DHT22;27709;52.036;5.906;2022-10-31T09:34:21;16.60;99.90
42031;DHT22;27709;52.036;5.906;2022-10-31T09:39:38;16.50;99.90
42031;DHT22;27709;52.036;5.906;2022-10-31T09:50:24;16.50;99.90
42031;DHT22;27709;52.036;5.906;2022-10-31T09:53:26;16.50;99.90
42031;DHT22;27709;52.036;5.906;2022-10-31T09:55:55;16.60;99.90
42031;DHT22;27709;52.036;5.906;2022-10-31T09:58:42;16.60;99.90
42031;DHT22;27709;52.036;5.906;2022-10-31T10:01:30;16.60;99.90
42031;DHT22;27709;52.036;5.906;2022-10-31T10:06:46;16.60;99.90
42031;DHT22;27709;52.036;5.906;2022-10-31T10:09:16;16.60;99.90
42031;DHT22;27709;52.036;5.906;2022-10-31T10:12:08;16.60;99.90
42031;DHT22;27709;52.036;5.906;2022-10-31T10:21:18;16.60;99.90
42031;DHT22;27709;52.036;5.906;2022-10-31T10:26:22;16.60;99.90
42031;DHT22;27709;52.036;5.906;2022-10-31T10:28:53;16.70;99.90
42031;DHT22;27709;52.036;5.906;2022-10-31T10:31:24;16.70;99.90
42031;DHT22;27709;52.036;5.906;2022-10-31T10:34:11;16.60;99.90
42031;DHT22;27709;52.036;5.906;2022-10-31T10:36:42;16.50;99.90
42031;DHT22;27709;52.036;5.906;2022-10-31T10:39:35;16.50;99.90
42031;DHT22;27709;52.036;5.906;2022-10-31T10:41:59;16.50;99.90
42031;DHT22;27709;52.036;5.906;2022-10-31T10:44:46;16.50;99.90
42031;DHT22;27709;52.036;5.906;2022-10-31T10:47:41;16.40;99.90
42031;DHT22;27709;52.036;5.906;2022-10-31T10:50:20;16.40;99.90
42031;DHT22;27709;52.036;5.906;2022-10-31T10:58:27;16.40;99.90
42031;DHT22;27709;52.036;5.906;2022-10-31T11:00:54;16.40;99.90
42031;DHT22;27709;52.036;5.906;2022-10-31T11:03:22;16.40;99.90
42031;DHT22;27709;52.036;5.906;2022-10-31T11:05:51;16.40;99.90
42031;DHT22;27709;52.036;5.906;2022-10-31T11:08:38;16.60;99.90
42031;DHT22;27709;52.036;5.906;2022-10-31T11:11:25;16.90;99.90
42031;DHT22;27709;52.036;5.906;2022-10-31T11:14:11;17.10;99.90
42031;DHT22;27709;52.036;5.906;2022-10-31T11:16:43;17.20;99.90
42031;DHT22;27709;52.036;5.906;2022-10-31T11:19:21;17.30;99.90
42031;DHT22;27709;52.036;5.906;2022-10-31T11:21:50;17.40;99.90
42031;DHT22;27709;52.036;5.906;2022-10-31T11:24:39;17.40;99.90
42031;DHT22;27709;52.036;5.906;2022-10-31T11:27:16;17.50;99.90
42031;DHT22;27709;52.036;5.906;2022-10-31T11:29:46;17.60;99.90
42031;DHT22;27709;52.036;5.906;2022-10-31T11:32:19;17.60;99.90
42031;DHT22;27709;52.036;5.906;2022-10-31T11:34:49;17.60;99.90
42031;DHT22;27709;52.036;5.906;2022-10-31T11:37:23;17.50;99.90
42031;DHT22;27709;52.036;5.906;2022-10-31T11:40:20;17.50;99.90
42031;DHT22;27709;52.036;5.906;2022-10-31T11:42:47;17.40;99.90
42031;DHT22;27709;52.036;5.906;2022-10-31T11:45:29;17.30;99.90
42031;DHT22;27709;52.036;5.906;2022-10-31T11:47:56;17.30;99.90
42031;DHT22;27709;52.036;5.906;2022-10-31T11:50:40;17.30;99.90
42031;DHT22;27709;52.036;5.906;2022-10-31T11:53:16;17.30;99.90
42031;DHT22;27709;52.036;5.906;2022-10-31T11:55:42;17.30;99.90
42031;DHT22;27709;52.036;5.906;2022-10-31T11:58:33;17.30;99.90
42031;DHT22;27709;52.036;5.906;2022-10-31T12:00:59;17.40;99.90
42031;DHT22;27709;52.036;5.906;2022-10-31T12:03:54;17.40;99.90
42031;DHT22;27709;52.036;5.906;2022-10-31T12:06:37;17.50;99.90
42031;DHT22;27709;52.036;5.906;2022-10-31T12:12:10;17.50;99.90
42031;DHT22;27709;52.036;5.906;2022-10-31T12:17:36;17.50;99.90
42031;DHT22;27709;52.036;5.906;2022-10-31T12:20:25;17.50;99.90
42031;DHT22;27709;52.036;5.906;2022-10-31T12:23:24;17.60;99.90
42031;DHT22;27709;52.036;5.906;2022-10-31T12:31:54;17.90;99.90
42031;DHT22;27709;52.036;5.906;2022-10-31T12:37:00;17.80;99.90
42031;DHT22;27709;52.036;5.906;2022-10-31T12:44:54;17.60;99.90
42031;DHT22;27709;52.036;5.906;2022-10-31T12:58:26;17.60;99.90
42031;DHT22;27709;52.036;5.906;2022-10-31T13:03:54;17.80;99.90
42031;DHT22;27709;52.036;5.906;2022-10-31T13:06:32;17.90;99.90
42031;DHT22;27709;52.036;5.906;2022-10-31T13:09:02;17.90;99.90
42031;DHT22;27709;52.036;5.906;2022-10-31T13:11:35;18.00;99.90
42031;DHT22;27709;52.036;5.906;2022-10-31T13:14:29;18.00;99.90
42031;DHT22;27709;52.036;5.906;2022-10-31T13:16:57;18.00;99.90
42031;DHT22;27709;52.036;5.906;2022-10-31T13:19:29;18.10;99.90
42031;DHT22;27709;52.036;5.906;2022-10-31T13:27:30;18.30;99.90
42031;DHT22;27709;52.036;5.906;2022-10-31T13:30:06;18.30;99.90
42031;DHT22;27709;52.036;5.906;2022-10-31T13:35:41;18.20;99.90
42031;DHT22;27709;52.036;5.906;2022-10-31T13:38:22;18.10;99.90
42031;DHT22;27709;52.036;5.906;2022-10-31T13:40:53;18.10;99.90
42031;DHT22;27709;52.036;5.906;2022-10-31T13:43:29;18.00;99.90
42031;DHT22;27709;52.036;5.906;2022-10-31T13:45:57;18.00;99.90
42031;DHT22;27709;52.036;5.906;2022-10-31T13:48:36;18.00;99.90
42031;DHT22;27709;52.036;5.906;2022-10-31T13:51:07;18.00;99.90
42031;DHT22;27709;52.036;5.906;2022-10-31T13:56:23;18.00;99.90
42031;DHT22;27709;52.036;5.906;2022-10-31T13:59:22;18.00;99.90
42031;DHT22;27709;52.036;5.906;2022-10-31T14:01:57;18.00;99.90
42031;DHT22;27709;52.036;5.906;2022-10-31T14:04:28;18.00;99.90
42031;DHT22;27709;52.036;5.906;2022-10-31T14:07:11;17.90;99.90
42031;DHT22;27709;52.036;5.906;2022-10-31T14:09:39;17.90;99.90
42031;DHT22;27709;52.036;5.906;2022-10-31T14:12:22;17.90;99.90
42031;DHT22;27709;52.036;5.906;2022-10-31T14:14:51;17.90;99.90
42031;DHT22;27709;52.036;5.906;2022-10-31T14:17:21;17.90;99.90
42031;DHT22;27709;52.036;5.906;2022-10-31T14:22:37;17.80;99.90
42031;DHT22;27709;52.036;5.906;2022-10-31T14:25:33;17.80;99.90
42031;DHT22;27709;52.036;5.906;2022-10-31T14:28:02;17.80;99.90
42031;DHT22;27709;52.036;5.906;2022-10-31T14:30:31;17.80;99.90
42031;DHT22;27709;52.036;5.906;2022-10-31T14:33:02;17.70;99.90
42031;DHT22;27709;52.036;5.906;2022-10-31T14:35:46;17.70;99.90
42031;DHT22;27709;52.036;5.906;2022-10-31T14:38:40;17.70;99.90
42031;DHT22;27709;52.036;5.906;2022-10-31T14:41:14;17.70;99.90
42031;DHT22;27709;52.036;5.906;2022-10-31T14:46:35;17.60;99.90
42031;DHT22;27709;52.036;5.906;2022-10-31T14:52:01;17.50;99.90
42031;DHT22;27709;52.036;5.906;2022-10-31T14:54:38;17.50;99.90
42031;DHT22;27709;52.036;5.906;2022-10-31T14:57:31;17.40;99.90
42031;DHT22;27709;52.036;5.906;2022-10-31T15:00:15;17.40;99.90
42031;DHT22;27709;52.036;5.906;2022-10-31T15:03:12;17.40;99.90
42031;DHT22;27709;52.036;5.906;2022-10-31T15:05:48;17.30;99.90
42031;DHT22;27709;52.036;5.906;2022-10-31T15:11:23;17.30;99.90
42031;DHT22;27709;52.036;5.906;2022-10-31T15:13:50;17.20;99.90
42031;DHT22;27709;52.036;5.906;2022-10-31T15:16:20;17.20;99.90
42031;DHT22;27709;52.036;5.906;2022-10-31T15:18:56;17.10;99.90
42031;DHT22;27709;52.036;5.906;2022-10-31T15:21:24;17.10;99.90
42031;DHT22;27709;52.036;5.906;2022-10-31T15:23:52;17.10;99.90
42031;DHT22;27709;52.036;5.906;2022-10-31T15:26:22;17.00;99.90
42031;DHT22;27709;52.036;5.906;2022-10-31T15:29:02;17.00;99.90
42031;DHT22;27709;52.036;5.906;2022-10-31T15:31:28;16.90;99.90
42031;DHT22;27709;52.036;5.906;2022-10-31T15:33:54;16.90;99.90
42031;DHT22;27709;52.036;5.906;2022-10-31T15:36:24;16.90;99.90
42031;DHT22;27709;52.036;5.906;2022-10-31T15:38:50;16.80;99.90
42031;DHT22;27709;52.036;5.906;2022-10-31T15:41:33;16.80;99.90
42031;DHT22;27709;52.036;5.906;2022-10-31T15:44:06;16.80;99.90
42031;DHT22;27709;52.036;5.906;2022-10-31T15:46:37;16.80;99.90
42031;DHT22;27709;52.036;5.906;2022-10-31T15:49:03;16.70;99.90
42031;DHT22;27709;52.036;5.906;2022-10-31T15:51:32;16.70;99.90
42031;DHT22;27709;52.036;5.906;2022-10-31T15:53:59;16.70;99.90
42031;DHT22;27709;52.036;5.906;2022-10-31T15:56:28;16.70;99.90
42031;DHT22;27709;52.036;5.906;2022-10-31T15:58:56;16.60;99.90
42031;DHT22;27709;52.036;5.906;2022-10-31T16:01:29;16.60;99.90
42031;DHT22;27709;52.036;5.906;2022-10-31T16:06:36;16.50;99.90
42031;DHT22;27709;52.036;5.906;2022-10-31T16:09:03;16.50;99.90
42031;DHT22;27709;52.036;5.906;2022-10-31T16:11:39;16.50;99.90
42031;DHT22;27709;52.036;5.906;2022-10-31T16:14:17;16.50;99.90
42031;DHT22;27709;52.036;5.906;2022-10-31T16:16:46;16.40;99.90
42031;DHT22;27709;52.036;5.906;2022-10-31T16:19:20;16.40;99.90
42031;DHT22;27709;52.036;5.906;2022-10-31T16:21:49;16.30;99.90
42031;DHT22;27709;52.036;5.906;2022-10-31T16:24:28;16.40;99.90
42031;DHT22;27709;52.036;5.906;2022-10-31T16:27:01;16.30;99.90
42031;DHT22;27709;52.036;5.906;2022-10-31T16:29:43;16.30;99.90
42031;DHT22;27709;52.036;5.906;2022-10-31T16:32:51;16.30;99.90
42031;DHT22;27709;52.036;5.906;2022-10-31T16:35:25;16.30;99.90
42031;DHT22;27709;52.036;5.906;2022-10-31T16:37:52;16.30;99.90
42031;DHT22;27709;52.036;5.906;2022-10-31T16:40:18;16.20;99.90
42031;DHT22;27709;52.036;5.906;2022-10-31T16:42:44;16.20;99.90
42031;DHT22;27709;52.036;5.906;2022-10-31T16:45:22;16.20;99.90
42031;DHT22;27709;52.036;5.906;2022-10-31T16:47:49;16.20;99.90
42031;DHT22;27709;52.036;5.906;2022-10-31T16:50:26;16.20;99.90
42031;DHT22;27709;52.036;5.906;2022-10-31T16:52:52;16.20;99.90
42031;DHT22;27709;52.036;5.906;2022-10-31T16:55:20;16.10;99.90
42031;DHT22;27709;52.036;5.906;2022-10-31T16:57:52;16.10;99.90
42031;DHT22;27709;52.036;5.906;2022-10-31T17:00:22;16.10;99.90
42031;DHT22;27709;52.036;5.906;2022-10-31T17:02:50;16.10;99.90
42031;DHT22;27709;52.036;5.906;2022-10-31T17:05:17;16.00;99.90
42031;DHT22;27709;52.036;5.906;2022-10-31T17:07:43;15.90;99.90
42031;DHT22;27709;52.036;5.906;2022-10-31T17:10:11;15.90;99.90
42031;DHT22;27709;52.036;5.906;2022-10-31T17:12:37;15.90;99.90
42031;DHT22;27709;52.036;5.906;2022-10-31T17:15:05;15.80;99.90
42031;DHT22;27709;52.036;5.906;2022-10-31T17:17:31;15.70;99.90
42031;DHT22;27709;52.036;5.906;2022-10-31T17:19:57;15.70;99.90
42031;DHT22;27709;52.036;5.906;2022-10-31T17:22:24;15.70;99.90
42031;DHT22;27709;52.036;5.906;2022-10-31T17:24:52;15.70;99.90
42031;DHT22;27709;52.036;5.906;2022-10-31T17:27:17;15.60;99.90
42031;DHT22;27709;52.036;5.906;2022-10-31T17:29:43;15.60;99.90
42031;DHT22;27709;52.036;5.906;2022-10-31T17:32:11;15.60;99.90
42031;DHT22;27709;52.036;5.906;2022-10-31T17:34:37;15.60;99.90
42031;DHT22;27709;52.036;5.906;2022-10-31T17:37:03;15.60;99.90
42031;DHT22;27709;52.036;5.906;2022-10-31T17:39:28;15.60;99.90
42031;DHT22;27709;52.036;5.906;2022-10-31T17:41:54;15.50;99.90
42031;DHT22;27709;52.036;5.906;2022-10-31T17:44:20;15.50;99.90
42031;DHT22;27709;52.036;5.906;2022-10-31T17:46:45;15.50;99.90
42031;DHT22;27709;52.036;5.906;2022-10-31T17:49:13;15.50;99.90
42031;DHT22;27709;52.036;5.906;2022-10-31T17:51:47;15.50;99.90
42031;DHT22;27709;52.036;5.906;2022-10-31T17:54:28;15.50;99.90
42031;DHT22;27709;52.036;5.906;2022-10-31T17:56:55;15.50;99.90
42031;DHT22;27709;52.036;5.906;2022-10-31T17:59:25;15.50;99.90
42031;DHT22;27709;52.036;5.906;2022-10-31T18:02:03;15.50;99.90
42031;DHT22;27709;52.036;5.906;2022-10-31T18:04:51;15.50;99.90
42031;DHT22;27709;52.036;5.906;2022-10-31T18:07:27;15.50;99.90
42031;DHT22;27709;52.036;5.906;2022-10-31T18:09:52;15.50;99.90